Time;durP1;ratioP1;P1;durP2;ratioP2;P2;SDS_P1;SDS_P2;PMS_P1;PMS_P2;Temp;Humidity;BMP_temperature;BMP_pressure;BME280_temperature;BME280_humidity;BME280_pressure;Samples;Min_cycle;Max_cycle;Signal;HPM_P1;HPM_P2
2022/06/18 00:01:48;;;;;;;4.03;1.95;;;;;;;20.20;50.50;101459.63;5028412;28;20595;-69
2022/06/18 00:04:17;;;;;;;5.15;2.15;;;;;;;19.89;51.97;101455.88;5027040;28;20087;-69
2022/06/18 00:06:49;;;;;;;4.38;2.00;;;;;;;19.89;51.71;101455.88;5027839;28;20046;-70
2022/06/18 00:09:20;;;;;;;6.03;2.35;;;;;;;19.50;53.00;101456.34;5025164;28;20052;-69
2022/06/18 00:14:32;;;;;;;4.50;2.30;;;;;;;19.63;52.21;101438.47;5027334;28;20048;-69
2022/06/18 00:16:58;;;;;;;6.07;2.28;;;;;;;19.64;52.67;101441.97;5027693;28;20041;-70
2022/06/18 00:19:25;;;;;;;4.85;2.30;;;;;;;19.63;52.41;101445.59;5023552;28;20095;-69
2022/06/18 00:21:51;;;;;;;7.30;2.10;;;;;;;19.69;52.45;101439.81;5026087;28;20068;-69
2022/06/18 00:24:21;;;;;;;3.92;2.30;;;;;;;20.08;51.17;101430.44;5028315;28;20045;-69
2022/06/18 00:26:47;;;;;;;2.90;1.92;;;;;;;19.98;51.60;101425.03;5028961;28;20103;-69
2022/06/18 00:29:18;;;;;;;7.50;2.33;;;;;;;19.59;52.67;101428.16;5030593;28;20033;-69
2022/06/18 00:31:46;;;;;;;8.10;2.83;;;;;;;19.39;53.17;101429.72;5028666;28;20056;-69
2022/06/18 00:34:13;;;;;;;4.25;2.50;;;;;;;19.43;53.08;101432.06;5028029;28;20107;-69
2022/06/18 00:36:42;;;;;;;5.97;2.45;;;;;;;19.75;52.06;101423.34;5024865;28;20092;-69
2022/06/18 00:39:12;;;;;;;6.57;2.92;;;;;;;19.55;52.21;101418.78;5024981;28;20131;-69
2022/06/18 00:41:40;;;;;;;4.60;2.10;;;;;;;19.61;52.17;101421.78;5026977;28;20068;-72
2022/06/18 00:44:15;;;;;;;5.53;2.60;;;;;;;19.52;52.56;101421.63;5025522;28;20053;-73
2022/06/18 00:46:48;;;;;;;3.72;2.20;;;;;;;19.11;53.50;101422.16;5026476;28;20104;-70
2022/06/18 00:49:21;;;;;;;4.22;2.25;;;;;;;19.63;52.13;101405.69;5023517;28;20049;-70
2022/06/18 00:51:53;;;;;;;5.05;2.80;;;;;;;19.81;51.69;101407.72;5026818;28;20068;-70
2022/06/18 00:54:24;;;;;;;4.57;2.50;;;;;;;19.89;51.15;101412.44;5028190;28;20577;-69
2022/06/18 00:56:57;;;;;;;3.38;2.33;;;;;;;19.53;52.22;101400.25;5027402;28;20061;-69
2022/06/18 00:59:31;;;;;;;9.32;2.95;;;;;;;19.30;52.87;101402.00;5025372;28;20049;-70
2022/06/18 01:02:00;;;;;;;3.67;2.28;;;;;;;19.46;52.63;101393.72;5006570;28;20046;-69
2022/06/18 01:04:30;;;;;;;8.60;2.80;;;;;;;19.63;52.13;101400.38;5025499;28;20042;-70
2022/06/18 01:07:01;;;;;;;8.68;2.70;;;;;;;19.00;53.58;101385.75;5026355;28;20052;-69
2022/06/18 01:09:28;;;;;;;7.32;2.50;;;;;;;19.01;53.92;101391.94;5026068;28;20103;-70
2022/06/18 01:11:56;;;;;;;6.85;2.70;;;;;;;19.19;53.81;101383.38;5025895;28;20742;-71
2022/06/18 01:14:24;;;;;;;5.00;2.55;;;;;;;19.08;54.27;101383.38;5025825;28;20125;-71
2022/06/18 01:16:51;;;;;;;8.50;2.75;;;;;;;19.16;53.93;101377.47;5007124;28;20049;-71
2022/06/18 01:19:28;;;;;;;10.13;2.78;;;;;;;19.19;53.58;101378.06;5005993;28;20058;-70
2022/06/18 01:22:01;;;;;;;3.58;2.28;;;;;;;19.26;53.25;101379.28;5006295;28;20072;-71
2022/06/18 01:24:36;;;;;;;6.65;2.42;;;;;;;19.37;53.06;101366.00;5025501;28;20072;-71
2022/06/18 01:27:04;;;;;;;7.53;3.50;;;;;;;18.90;54.88;101375.00;5026346;28;20045;-71
2022/06/18 01:29:30;;;;;;;5.78;2.50;;;;;;;18.89;54.90;101360.00;5026163;28;20049;-71
2022/06/18 01:31:57;;;;;;;5.70;2.80;;;;;;;19.07;54.07;101357.75;5025160;28;20099;-70
2022/06/18 01:34:23;;;;;;;5.10;2.50;;;;;;;18.90;54.68;101360.88;5025021;28;20049;-70
2022/06/18 01:36:52;;;;;;;4.88;2.70;;;;;;;19.13;54.16;101356.44;5026931;28;20099;-70
2022/06/18 01:39:24;;;;;;;6.22;2.83;;;;;;;18.62;55.60;101351.50;5023929;28;20116;-70
2022/06/18 01:41:57;;;;;;;7.30;2.70;;;;;;;18.45;56.05;101354.53;5024574;28;20053;-70
2022/06/18 01:44:29;;;;;;;7.22;2.78;;;;;;;18.27;56.66;101342.63;5025668;28;20058;-70
2022/06/18 01:47:03;;;;;;;7.32;2.83;;;;;;;18.65;55.44;101332.66;5025444;28;20096;-70
2022/06/18 01:49:37;;;;;;;4.40;2.85;;;;;;;18.56;56.08;101343.13;5025869;28;20559;-70
2022/06/18 01:52:08;;;;;;;3.85;2.40;;;;;;;18.52;55.56;101331.88;5026189;28;20041;-70
2022/06/18 01:54:39;;;;;;;5.38;2.40;;;;;;;18.07;56.90;101333.47;5025430;28;20430;-70
2022/06/18 01:57:15;;;;;;;4.77;2.73;;;;;;;18.07;56.92;101333.47;5024841;28;20095;-70
2022/06/18 01:59:46;;;;;;;5.03;2.85;;;;;;;18.37;56.28;101322.38;5023353;28;20288;-70
2022/06/18 02:02:13;;;;;;;5.57;2.88;;;;;;;18.87;55.04;101318.59;5024066;28;20100;-70
2022/06/18 02:04:41;;;;;;;3.90;2.42;;;;;;;18.51;55.57;101310.75;5025636;28;20057;-70
2022/06/18 02:07:08;;;;;;;3.42;2.65;;;;;;;18.61;55.29;101309.09;5023497;28;20493;-71
2022/06/18 02:09:40;;;;;;;7.38;2.92;;;;;;;18.41;56.01;101316.72;5024750;28;20100;-70
2022/06/18 02:12:15;;;;;;;4.35;2.50;;;;;;;18.72;55.08;101309.13;5023300;28;20454;-70
2022/06/18 02:14:44;;;;;;;3.67;2.20;;;;;;;18.52;55.41;101307.13;5025794;28;20402;-70
2022/06/18 02:17:17;;;;;;;4.88;2.55;;;;;;;18.53;55.16;101298.22;5025480;28;20037;-70
2022/06/18 02:19:47;;;;;;;5.78;2.55;;;;;;;18.71;55.09;101300.31;5023402;28;20076;-71
2022/06/18 02:22:15;;;;;;;4.60;2.35;;;;;;;18.80;54.79;101290.81;5024299;28;20049;-71
2022/06/18 02:24:41;;;;;;;4.22;2.80;;;;;;;18.96;53.81;101286.81;5028125;28;20046;-71
2022/06/18 02:27:13;;;;;;;5.05;2.80;;;;;;;18.43;56.16;101292.72;5036247;28;20049;-71
2022/06/18 02:29:39;;;;;;;7.25;2.72;;;;;;;18.05;57.32;101286.78;5044083;28;20077;-70
2022/06/18 02:32:11;;;;;;;5.25;2.70;;;;;;;18.34;56.20;101288.94;5043352;28;20145;-72
2022/06/18 02:34:38;;;;;;;5.65;2.75;;;;;;;18.46;55.37;101289.84;5046357;28;20397;-71
2022/06/18 02:37:24;;;;;;;6.97;3.13;;;;;;;18.40;55.95;101287.66;5044179;28;20505;-71
2022/06/18 02:39:59;;;;;;;5.10;2.72;;;;;;;18.53;55.10;101272.50;5024689;28;20512;-70
2022/06/18 02:42:29;;;;;;;4.75;2.42;;;;;;;18.72;54.54;101279.91;5025970;28;20556;-70
2022/06/18 02:44:56;;;;;;;5.97;3.00;;;;;;;18.06;56.60;101270.75;5024381;28;20391;-71
2022/06/18 02:47:22;;;;;;;7.25;2.70;;;;;;;17.93;57.25;101270.81;5025462;28;20077;-71
2022/06/18 02:49:54;;;;;;;4.38;2.55;;;;;;;17.81;57.51;101269.03;5023475;28;20414;-71
2022/06/18 02:52:24;;;;;;;3.20;2.45;;;;;;;18.17;56.56;101270.81;5025197;28;20081;-72
2022/06/18 02:54:50;;;;;;;5.95;2.95;;;;;;;17.75;57.58;101263.34;5023592;28;20048;-71
2022/06/18 02:57:24;;;;;;;3.80;2.40;;;;;;;17.97;57.40;101263.47;5022554;28;20103;-72
2022/06/18 02:59:51;;;;;;;7.07;3.15;;;;;;;18.06;56.88;101262.78;5018823;28;20045;-72
2022/06/18 03:02:18;;;;;;;11.48;2.42;;;;;;;18.02;57.23;101257.81;5023578;28;20084;-71
2022/06/18 03:04:44;;;;;;;5.22;2.60;;;;;;;18.21;56.57;101268.75;5023593;28;20053;-71
2022/06/18 03:07:11;;;;;;;6.57;2.95;;;;;;;18.28;56.73;101257.56;5023647;28;20675;-71
2022/06/18 03:12:06;;;;;;;3.67;2.63;;;;;;;17.90;57.67;101254.28;5022581;28;20046;-72
2022/06/18 03:12:23;;;;;;;9.43;2.72;;;;;;;17.97;57.76;101251.03;5024985;28;20048;-71
2022/06/18 03:14:49;;;;;;;5.07;2.85;;;;;;;18.26;56.78;101251.50;5023612;28;20413;-72
2022/06/18 03:17:17;;;;;;;6.13;2.70;;;;;;;18.03;57.59;101251.56;5023304;28;20111;-71
2022/06/18 03:19:50;;;;;;;7.00;2.72;;;;;;;18.53;55.89;101243.28;5022902;28;20663;-71
2022/06/18 03:22:20;;;;;;;4.47;2.55;;;;;;;18.71;55.25;101241.88;5024756;28;20045;-70
2022/06/18 03:24:46;;;;;;;7.05;2.58;;;;;;;19.03;54.02;101242.00;5022629;28;20042;-71
2022/06/18 03:27:14;;;;;;;5.75;2.72;;;;;;;18.79;54.48;101236.81;5024456;28;20583;-71
2022/06/18 03:29:41;;;;;;;3.72;2.60;;;;;;;18.41;55.72;101246.84;5024307;28;20390;-71
2022/06/18 03:32:08;;;;;;;9.63;3.72;;;;;;;18.67;55.19;101239.56;5022289;28;20489;-71
2022/06/18 03:34:36;;;;;;;5.68;2.80;;;;;;;18.72;54.82;101235.59;5023488;28;20485;-70
2022/06/18 03:37:03;;;;;;;9.63;2.78;;;;;;;18.77;54.50;101233.41;5024518;28;20049;-70
2022/06/18 03:39:30;;;;;;;5.95;2.70;;;;;;;18.72;55.16;101234.75;5022350;28;20104;-70
2022/06/18 03:41:58;;;;;;;6.50;2.92;;;;;;;18.73;55.41;101231.13;5025045;28;20062;-70
2022/06/18 03:44:25;;;;;;;6.78;2.67;;;;;;;18.85;54.72;101225.69;5024919;28;20069;-69
2022/06/18 03:46:52;;;;;;;5.07;2.70;;;;;;;19.35;52.59;101229.66;5021711;28;20046;-69
2022/06/18 03:49:24;;;;;;;9.48;2.30;;;;;;;19.05;54.05;101221.47;5023041;28;20498;-69
2022/06/18 03:51:52;;;;;;;7.53;2.80;;;;;;;19.11;54.45;101218.31;5024445;28;20123;-71
2022/06/18 03:54:19;;;;;;;6.65;2.55;;;;;;;19.15;54.13;101225.09;5024296;28;20708;-71
2022/06/18 03:56:45;;;;;;;5.57;2.67;;;;;;;19.24;53.89;101224.34;5022178;28;20045;-71
2022/06/18 03:59:12;;;;;;;4.47;2.63;;;;;;;19.18;54.03;101227.50;5023801;28;20050;-71
2022/06/18 04:01:40;;;;;;;7.63;2.75;;;;;;;18.86;54.25;101230.06;5024236;28;20045;-70
2022/06/18 04:04:07;;;;;;;4.07;2.30;;;;;;;19.19;53.59;101223.03;5022431;28;20045;-70
2022/06/18 04:06:33;;;;;;;4.63;2.65;;;;;;;19.46;52.79;101233.28;5024015;28;20041;-70
2022/06/18 04:09:01;;;;;;;10.38;2.75;;;;;;;19.45;53.17;101216.50;5023940;28;20049;-70
2022/06/18 04:11:28;;;;;;;7.80;2.47;;;;;;;19.67;52.54;101220.91;5023483;28;20053;-70
2022/06/18 04:13:55;;;;;;;7.25;2.97;;;;;;;19.58;51.93;101221.66;5023729;28;20099;-70
2022/06/18 04:16:21;;;;;;;4.97;2.67;;;;;;;19.76;51.69;101220.16;5024160;28;20109;-70
2022/06/18 04:18:48;;;;;;;5.95;2.60;;;;;;;19.99;51.33;101220.91;5022555;28;20629;-70
2022/06/18 04:21:15;;;;;;;5.05;2.60;;;;;;;19.81;51.66;101221.44;5025202;28;20099;-70
2022/06/18 04:23:41;;;;;;;3.63;2.25;;;;;;;19.87;51.06;101225.44;5022914;28;20061;-70
2022/06/18 04:26:10;;;;;;;4.68;2.30;;;;;;;19.36;53.03;101225.19;5023101;28;20045;-70
2022/06/18 04:28:37;;;;;;;3.85;2.40;;;;;;;19.63;52.19;101224.78;5024306;28;20480;-70
2022/06/18 04:31:04;;;;;;;7.68;2.38;;;;;;;19.89;51.68;101223.47;5024440;28;20054;-70
2022/06/18 04:33:31;;;;;;;4.38;2.45;;;;;;;19.31;53.32;101219.38;5023416;28;20099;-70
2022/06/18 04:35:58;;;;;;;6.72;2.30;;;;;;;19.72;52.59;101216.06;5024146;28;20053;-70
2022/06/18 04:38:26;;;;;;;5.82;2.25;;;;;;;19.98;51.75;101216.56;5023773;28;20057;-71
2022/06/18 04:40:53;;;;;;;5.35;2.47;;;;;;;19.81;52.15;101209.97;5022934;28;20192;-70
2022/06/18 04:43:21;;;;;;;6.00;2.30;;;;;;;20.20;50.83;101214.63;5022579;28;20103;-70
2022/06/18 04:45:47;;;;;;;6.00;2.40;;;;;;;20.12;51.19;101210.91;5026369;28;20054;-70
2022/06/18 04:48:15;;;;;;;4.38;2.10;;;;;;;20.62;50.16;101214.66;5028331;28;20095;-70
2022/06/18 04:50:42;;;;;;;4.10;2.05;;;;;;;20.11;51.62;101204.75;5026515;28;20410;-70
2022/06/18 04:53:09;;;;;;;5.05;2.20;;;;;;;19.96;52.57;101214.00;5027459;28;20221;-69
2022/06/18 04:55:36;;;;;;;4.70;2.10;;;;;;;19.73;52.35;101210.59;5028312;28;20651;-69
2022/06/18 04:58:03;;;;;;;7.65;2.30;;;;;;;19.89;51.81;101211.03;5025486;28;20053;-69
2022/06/18 05:00:31;;;;;;;4.65;2.10;;;;;;;20.35;50.54;101215.19;5027481;28;20417;-69
2022/06/18 05:02:57;;;;;;;3.75;2.10;;;;;;;20.60;50.15;101221.91;5027242;28;20497;-70
2022/06/18 05:05:27;;;;;;;4.70;1.95;;;;;;;21.03;49.40;101221.69;5026448;28;20056;-70
2022/06/18 05:07:54;;;;;;;2.60;1.80;;;;;;;21.26;49.07;101224.06;5027823;28;20095;-70
2022/06/18 05:10:21;;;;;;;6.35;2.10;;;;;;;21.40;48.02;101220.16;5026642;28;20049;-70
2022/06/18 05:12:47;;;;;;;6.68;2.15;;;;;;;20.83;49.90;101223.44;5025767;28;20045;-70
2022/06/18 05:15:13;;;;;;;2.33;1.70;;;;;;;20.89;49.57;101225.56;5028248;28;20127;-70
2022/06/18 05:17:45;;;;;;;6.45;2.25;;;;;;;21.07;49.47;101223.94;5028104;28;20460;-70
2022/06/18 05:20:14;;;;;;;3.28;2.05;;;;;;;22.17;47.22;101214.91;5026565;28;20092;-70
2022/06/18 05:22:41;;;;;;;6.60;1.98;;;;;;;22.51;46.63;101212.56;5027557;28;20497;-70
2022/06/18 05:25:09;;;;;;;10.68;1.83;;;;;;;23.07;45.12;101212.53;5027669;28;20112;-70
2022/06/18 05:27:36;;;;;;;5.05;2.38;;;;;;;23.56;44.06;101201.44;5025803;28;20103;-70
2022/06/18 05:30:04;;;;;;;3.10;1.80;;;;;;;23.15;44.37;101212.66;5026173;28;20045;-71
2022/06/18 05:32:30;;;;;;;3.55;1.77;;;;;;;23.50;43.41;101206.56;5026615;28;20065;-70
2022/06/18 05:34:58;;;;;;;3.22;1.73;;;;;;;23.99;42.97;101207.88;5023985;28;20042;-70
2022/06/18 05:37:26;;;;;;;3.03;2.13;;;;;;;24.42;43.03;101205.25;5025336;28;20049;-70
2022/06/18 05:39:53;;;;;;;5.55;1.88;;;;;;;24.48;41.45;101203.75;5026157;28;20049;-70
2022/06/18 05:42:21;;;;;;;3.88;2.03;;;;;;;24.53;41.35;101209.50;5024846;28;20460;-70
2022/06/18 05:44:47;;;;;;;4.88;1.83;;;;;;;24.66;41.29;101199.16;5025469;28;20049;-70
2022/06/18 05:47:17;;;;;;;2.47;1.60;;;;;;;24.35;41.73;101198.81;5027041;28;20045;-70
2022/06/18 05:49:43;;;;;;;2.30;1.60;;;;;;;24.57;42.78;101200.16;5035591;28;20067;-70
2022/06/18 05:52:11;;;;;;;3.75;1.80;;;;;;;24.44;42.42;101195.19;5029545;28;20103;-69
2022/06/18 05:54:38;;;;;;;5.18;1.88;;;;;;;24.36;42.38;101189.75;5040455;28;20453;-69
2022/06/18 05:57:05;;;;;;;8.05;1.75;;;;;;;24.47;41.44;101186.81;5034999;28;20045;-69
2022/06/18 05:59:32;;;;;;;3.83;1.70;;;;;;;24.81;40.08;101176.13;5028511;28;20045;-69
2022/06/18 06:01:59;;;;;;;3.47;1.90;;;;;;;25.08;41.53;101180.47;5032342;28;20135;-68
2022/06/18 06:04:26;;;;;;;2.42;1.60;;;;;;;25.29;41.00;101177.34;5028310;28;20057;-69
2022/06/18 06:06:53;;;;;;;4.20;1.70;;;;;;;25.43;40.33;101171.31;5025332;28;20490;-69
2022/06/18 06:12:03;;;;;;;6.55;1.88;;;;;;;26.18;38.93;101172.94;5015487;28;20049;-69
2022/06/18 06:14:29;;;;;;;4.47;1.85;;;;;;;27.30;36.64;101170.06;5047484;28;20111;-69
2022/06/18 06:16:57;;;;;;;5.32;1.70;;;;;;;26.79;37.14;101166.91;5040904;28;20477;-69
2022/06/18 06:19:24;;;;;;;3.38;1.52;;;;;;;27.45;36.20;101157.53;5036949;28;20072;-69
2022/06/18 06:21:50;;;;;;;5.63;1.60;;;;;;;27.57;36.08;101164.19;5029483;28;20055;-71
2022/06/18 06:24:17;;;;;;;4.15;1.70;;;;;;;27.69;34.24;101156.53;5044332;28;20053;-70
2022/06/18 06:26:44;;;;;;;7.68;1.70;;;;;;;28.55;32.37;101156.94;5027309;28;20045;-71
2022/06/18 06:29:11;;;;;;;7.50;1.75;;;;;;;28.89;32.09;101149.13;5032694;28;20054;-70
2022/06/18 06:31:37;;;;;;;3.17;1.50;;;;;;;29.15;33.03;101156.72;5032281;28;20095;-71
2022/06/18 06:34:04;;;;;;;4.72;1.60;;;;;;;28.86;31.87;101148.69;5036967;28;20073;-70
2022/06/18 06:36:30;;;;;;;5.82;1.42;;;;;;;28.75;32.34;101143.75;5040360;28;20127;-70
2022/06/18 06:38:56;;;;;;;5.30;1.80;;;;;;;28.75;33.68;101149.16;5023840;28;20108;-70
2022/06/18 06:41:26;;;;;;;6.75;1.52;;;;;;;29.11;31.75;101133.81;5031296;28;20065;-70
2022/06/18 06:43:53;;;;;;;2.63;1.73;;;;;;;30.23;30.95;101141.16;5036852;28;20057;-70
2022/06/18 06:46:20;;;;;;;6.68;2.15;;;;;;;30.08;31.24;101145.81;5023898;28;20046;-70
2022/06/18 06:48:48;;;;;;;4.50;1.90;;;;;;;30.04;29.57;101141.03;5044341;28;20047;-70
2022/06/18 06:51:16;;;;;;;2.15;1.50;;;;;;;30.14;30.34;101136.94;5047924;28;20142;-70
2022/06/18 06:53:43;;;;;;;3.17;1.70;;;;;;;30.76;30.14;101134.22;5034226;28;20048;-70
2022/06/18 06:58:56;;;;;;;5.57;1.80;;;;;;;31.89;27.65;101132.66;5032105;28;20107;-69
2022/06/18 07:01:23;;;;;;;4.07;1.60;;;;;;;32.37;26.88;101136.00;5037239;28;20073;-70
2022/06/18 07:03:50;;;;;;;4.35;1.60;;;;;;;32.43;27.22;101133.25;5031482;28;20413;-69
2022/06/18 07:06:18;;;;;;;5.55;1.70;;;;;;;32.54;26.32;101123.63;5033197;28;20076;-69
2022/06/18 07:08:45;;;;;;;2.63;1.73;;;;;;;32.71;26.04;101141.97;5026694;28;20095;-69
2022/06/18 07:11:12;;;;;;;3.75;1.50;;;;;;;32.97;26.39;101126.59;5028866;28;20045;-69
2022/06/18 07:13:38;;;;;;;4.22;1.40;;;;;;;32.71;27.32;101124.84;5035111;28;20119;-69
2022/06/18 07:16:07;;;;;;;3.10;1.73;;;;;;;33.06;26.50;101128.03;5024704;28;20049;-69
2022/06/18 07:18:35;;;;;;;3.47;1.67;;;;;;;33.90;26.02;101125.00;5036451;28;20532;-70
2022/06/18 07:21:04;;;;;;;2.75;1.80;;;;;;;34.31;25.49;101122.53;5023773;28;20049;-70
2022/06/18 07:23:31;;;;;;;3.88;1.70;;;;;;;34.31;24.75;101125.25;5031209;28;20102;-70
2022/06/18 07:25:57;;;;;;;5.85;1.73;;;;;;;34.31;25.40;101117.09;5025060;28;20049;-70
2022/06/18 07:28:24;;;;;;;3.90;1.60;;;;;;;34.34;24.61;101108.47;5025001;28;20083;-70
2022/06/18 07:30:50;;;;;;;4.78;1.90;;;;;;;34.53;25.19;101107.41;5042810;28;20053;-71
2022/06/18 07:33:21;;;;;;;3.10;1.95;;;;;;;34.51;25.41;101101.38;5029216;28;20065;-71
2022/06/18 07:35:48;;;;;;;5.03;2.05;;;;;;;33.79;25.88;101093.91;5040448;28;20045;-67
2022/06/18 07:38:14;;;;;;;4.35;2.08;;;;;;;34.43;25.04;101090.78;5024088;28;20111;-67
2022/06/18 07:40:44;;;;;;;8.45;2.45;;;;;;;34.54;27.28;101086.47;5025298;28;20049;-67
2022/06/18 07:43:15;;;;;;;5.35;2.00;;;;;;;35.22;24.26;101086.25;5034101;28;20592;-67
2022/06/18 07:45:41;;;;;;;;;;;;;;;35.05;24.56;101088.75;5045008;28;20412;-70
2022/06/18 07:48:08;;;;;;;6.22;1.80;;;;;;;34.70;24.82;101086.69;5033567;28;19928;-70
2022/06/18 07:50:36;;;;;;;9.57;2.05;;;;;;;34.37;25.27;101082.72;5025758;28;20057;-69
2022/06/18 07:53:02;;;;;;;4.93;2.20;;;;;;;34.48;25.38;101082.75;5025231;28;20119;-70
2022/06/18 07:55:29;;;;;;;4.70;1.85;;;;;;;33.83;25.85;101084.25;5024997;28;20172;-70
2022/06/18 07:57:56;;;;;;;5.63;2.17;;;;;;;33.98;26.90;101084.75;5024352;28;20052;-69
2022/06/18 08:00:24;;;;;;;9.63;2.45;;;;;;;34.20;25.87;101080.56;5023205;28;20049;-68
2022/06/18 08:02:51;;;;;;;4.15;2.10;;;;;;;34.09;26.02;101073.13;5028175;28;20041;-68
2022/06/18 08:05:21;;;;;;;4.93;1.92;;;;;;;34.47;26.32;101081.13;5026789;28;20115;-68
2022/06/18 08:07:49;;;;;;;3.95;1.85;;;;;;;34.80;26.80;101074.44;5024222;28;20081;-68
2022/06/18 08:10:16;;;;;;;4.78;2.20;;;;;;;34.93;25.74;101072.34;5023729;28;20042;-68
2022/06/18 08:12:42;;;;;;;5.38;2.20;;;;;;;35.23;26.08;101077.81;5034533;28;20595;-68
2022/06/18 08:15:10;;;;;;;3.55;2.13;;;;;;;35.14;25.48;101079.25;5030132;28;20072;-68
2022/06/18 08:17:36;;;;;;;5.85;2.20;;;;;;;34.75;26.73;101075.13;5034080;28;20528;-68
2022/06/18 08:20:03;;;;;;;5.78;2.38;;;;;;;34.77;26.63;101069.47;5034793;28;20053;-68
2022/06/18 08:22:31;;;;;;;5.90;2.40;;;;;;;34.75;26.57;101075.13;5033073;28;20041;-68
2022/06/18 08:25:00;;;;;;;4.00;2.42;;;;;;;34.66;26.69;101074.59;5037435;28;20045;-68
2022/06/18 08:27:27;;;;;;;4.40;2.60;;;;;;;34.49;27.49;101072.69;5030624;28;20100;-68
2022/06/18 08:29:53;;;;;;;6.05;2.60;;;;;;;34.26;26.93;101070.66;5031516;28;20050;-68
2022/06/18 08:32:19;;;;;;;4.13;2.40;;;;;;;34.06;27.23;101070.00;5029989;28;20045;-68
2022/06/18 08:34:46;;;;;;;7.50;2.53;;;;;;;34.32;27.45;101071.66;5028233;28;20053;-68
2022/06/18 08:37:12;;;;;;;5.03;2.40;;;;;;;34.60;26.60;101071.94;5041988;28;20595;-69
2022/06/18 08:39:40;;;;;;;6.05;2.47;;;;;;;34.47;27.73;101072.09;5029781;28;20048;-69
2022/06/18 08:42:27;;;;;;;6.70;2.53;;;;;;;34.85;27.51;101072.69;5044820;28;20106;-69
2022/06/18 08:45:20;;;;;;;5.65;2.55;;;;;;;35.08;27.39;101075.50;5033267;28;20045;-69
2022/06/18 08:48:03;;;;;;;6.50;2.65;;;;;;;34.78;27.71;101066.47;5037403;28;20472;-69
2022/06/18 08:50:41;;;;;;;5.13;2.67;;;;;;;35.09;27.65;101065.44;5031602;28;20048;-69
2022/06/18 08:53:38;;;;;;;4.93;2.28;;;;;;;35.40;26.97;101069.81;5046329;28;20033;-69
2022/06/18 08:56:09;;;;;;;7.15;2.40;;;;;;;35.79;26.72;101071.06;5027862;28;20119;-69
2022/06/18 08:58:48;;;;;;;15.23;2.67;;;;;;;36.07;28.58;101076.63;5031044;28;20402;-69
2022/06/18 09:01:19;;;;;;;4.43;2.63;;;;;;;35.39;26.57;101069.00;5026971;28;20045;-69
2022/06/18 09:04:00;;;;;;;7.65;2.65;;;;;;;35.21;27.19;101065.50;5039322;28;20063;-69
2022/06/18 09:06:38;;;;;;;7.82;2.53;;;;;;;35.78;25.98;101070.25;5030681;28;20131;-70
2022/06/18 09:09:13;;;;;;;4.03;2.55;;;;;;;36.57;25.92;101063.31;5027302;28;20108;-70
2022/06/18 09:12:02;;;;;;;8.02;2.75;;;;;;;36.47;26.73;101066.66;5028851;28;20047;-70
2022/06/18 09:14:37;;;;;;;10.57;2.88;;;;;;;36.65;26.37;101057.47;5037036;28;20110;-70
2022/06/18 09:17:10;;;;;;;6.38;2.70;;;;;;;36.97;25.66;101055.06;5038597;28;20053;-70
2022/06/18 09:19:38;;;;;;;8.85;2.80;;;;;;;36.77;26.12;101058.25;5033083;28;20071;-70
2022/06/18 09:22:10;;;;;;;10.95;2.60;;;;;;;36.30;25.05;101057.53;5039338;28;20053;-68
2022/06/18 09:24:41;;;;;;;9.80;3.03;;;;;;;36.43;25.64;101060.00;5032344;28;20045;-69
2022/06/18 09:27:12;;;;;;;7.13;3.40;;;;;;;36.60;24.85;101060.09;5024854;28;20107;-69
2022/06/18 09:29:45;;;;;;;9.23;2.75;;;;;;;36.21;26.50;101060.88;5028151;28;20052;-69
2022/06/18 09:32:15;;;;;;;4.40;2.60;;;;;;;35.89;26.28;101054.94;5045014;28;20044;-68
2022/06/18 09:34:47;;;;;;;6.50;3.00;;;;;;;35.84;27.84;101055.66;5047392;28;20045;-69
2022/06/18 09:37:17;;;;;;;9.88;2.65;;;;;;;36.23;26.21;101061.47;5045194;28;20719;-69
2022/06/18 09:39:49;;;;;;;8.63;3.00;;;;;;;36.05;25.28;101057.78;5024694;28;20118;-69
2022/06/18 09:42:20;;;;;;;8.75;2.95;;;;;;;36.28;25.26;101056.97;5026403;28;20108;-69
2022/06/18 09:44:54;;;;;;;4.97;2.80;;;;;;;35.60;25.96;101038.41;5024007;28;20047;-69
2022/06/18 09:47:24;;;;;;;11.00;3.78;;;;;;;35.16;26.65;101047.13;5026754;28;20463;-67
2022/06/18 09:49:50;;;;;;;8.75;3.33;;;;;;;35.38;26.66;101047.41;5029258;28;20041;-68
2022/06/18 09:52:25;;;;;;;7.22;3.30;;;;;;;35.88;25.68;101045.94;5038424;28;20068;-67
2022/06/18 09:54:56;;;;;;;7.28;3.00;;;;;;;36.27;27.12;101043.53;5035366;28;20041;-67
2022/06/18 09:57:24;;;;;;;;;;;;;;;36.17;26.32;101052.34;5024671;28;20042;-67
2022/06/18 10:00:00;;;;;;;7.25;3.13;;;;;;;35.90;26.30;101042.94;5025511;28;20488;-67
2022/06/18 10:02:30;;;;;;;6.32;3.20;;;;;;;36.08;26.38;101048.28;5026856;28;20064;-67
2022/06/18 10:07:47;;;;;;;7.00;2.83;;;;;;;36.65;24.39;101034.78;5028736;28;20048;-67
2022/06/18 10:10:16;;;;;;;6.47;3.40;;;;;;;36.64;25.05;101031.22;5024359;28;20045;-68
2022/06/18 10:12:48;;;;;;;9.95;3.75;;;;;;;37.42;26.40;101034.03;5024179;28;20501;-68
2022/06/18 10:15:17;;;;;;;;;;;;;;;37.79;24.85;101026.16;5021005;28;20468;-68
2022/06/18 10:18:16;;;;;;;6.88;3.10;;;;;;;37.76;25.04;101031.31;5026911;28;20006;-68
2022/06/18 10:20:48;;;;;;;8.57;3.10;;;;;;;38.20;27.11;101026.75;4997757;28;20072;-68
2022/06/18 10:23:26;;;;;;;8.90;3.35;;;;;;;38.32;21.81;101033.72;5044160;28;20051;-68
2022/06/18 10:26:04;;;;;;;9.30;3.33;;;;;;;38.37;26.64;101038.44;5042465;28;20501;-68
2022/06/18 10:28:44;;;;;;;10.98;3.30;;;;;;;37.97;24.23;101038.75;5034254;28;20049;-68
2022/06/18 10:31:31;;;;;;;10.80;3.03;;;;;;;38.66;23.20;101023.47;5024841;28;21026;-68
2022/06/18 10:34:06;;;;;;;10.55;3.00;;;;;;;38.72;21.88;101029.84;5025840;28;20045;-68
2022/06/18 10:36:40;;;;;;;12.63;3.10;;;;;;;38.87;24.82;101027.31;5024750;28;20042;-68
2022/06/18 10:39:18;;;;;;;11.50;3.38;;;;;;;38.93;22.22;101020.78;5022057;28;20045;-68
2022/06/18 10:41:58;;;;;;;11.90;2.92;;;;;;;39.21;25.16;101019.69;5025257;28;20041;-68
2022/06/18 10:44:34;;;;;;;11.73;3.42;;;;;;;38.60;21.27;101012.72;5024939;28;20045;-68
2022/06/18 10:47:08;;;;;;;10.73;3.28;;;;;;;38.52;22.12;101011.28;5033249;28;20130;-68
2022/06/18 10:49:34;;;;;;;6.82;3.08;;;;;;;37.81;23.70;101010.28;5043366;28;20048;-68
2022/06/18 10:52:01;;;;;;;10.05;3.60;;;;;;;38.06;23.30;101006.31;5044077;28;20102;-68
2022/06/18 10:54:30;;;;;;;8.88;3.05;;;;;;;38.15;23.93;100996.53;5040034;28;20049;-68
2022/06/18 10:56:57;;;;;;;12.43;3.20;;;;;;;38.48;25.38;100996.44;5024171;28;20045;-67
2022/06/18 10:59:33;;;;;;;11.45;3.67;;;;;;;38.83;23.04;100998.75;5022458;28;20147;-68
2022/06/18 11:02:17;;;;;;;6.78;3.63;;;;;;;38.82;23.24;100995.16;5026116;28;20041;-68
2022/06/18 11:04:53;;;;;;;13.07;3.65;;;;;;;38.06;22.85;100993.44;5023397;28;20538;-68
2022/06/18 11:07:24;;;;;;;10.55;3.42;;;;;;;38.05;26.05;100997.25;5024490;28;20609;-67
2022/06/18 11:09:58;;;;;;;11.23;3.88;;;;;;;38.55;25.41;100997.06;5015696;28;20095;-68
2022/06/18 11:12:27;;;;;;;13.23;4.60;;;;;;;37.98;24.05;100991.97;5026886;28;20087;-67
2022/06/18 11:14:54;;;;;;;10.13;3.53;;;;;;;37.87;22.83;100978.38;5029721;28;20103;-67
2022/06/18 11:17:26;;;;;;;9.85;3.05;;;;;;;37.50;23.37;100998.09;5022346;28;20127;-67
2022/06/18 11:19:52;;;;;;;12.50;3.20;;;;;;;37.83;23.98;100989.00;5023868;28;20512;-67
2022/06/18 11:22:22;;;;;;;8.20;3.20;;;;;;;38.12;24.02;100984.19;5024910;28;20052;-67
2022/06/18 11:24:55;;;;;;;8.65;3.55;;;;;;;37.24;24.50;100995.16;5025420;28;20087;-67
2022/06/18 11:27:22;;;;;;;10.32;3.72;;;;;;;37.82;24.27;100994.69;5023001;28;20150;-67
2022/06/18 11:29:51;;;;;;;14.77;3.90;;;;;;;38.14;24.30;100984.75;5022579;28;20489;-68
2022/06/18 11:32:23;;;;;;;8.88;3.50;;;;;;;38.24;25.22;100984.06;5024466;28;20045;-67
2022/06/18 11:34:52;;;;;;;13.23;3.63;;;;;;;37.60;23.36;100982.88;5024544;28;20049;-67
2022/06/18 11:37:21;;;;;;;12.63;3.88;;;;;;;37.70;25.47;100983.84;5020108;28;20556;-67
2022/06/18 11:39:54;;;;;;;9.77;3.83;;;;;;;38.00;23.50;100978.84;5023489;28;20052;-67
2022/06/18 11:42:27;;;;;;;10.30;3.53;;;;;;;38.07;23.19;100978.66;5023642;28;20041;-68
2022/06/18 11:45:00;;;;;;;13.98;3.35;;;;;;;38.39;25.93;100982.38;5024436;28;20498;-68
2022/06/18 11:47:36;;;;;;;12.35;3.92;;;;;;;38.74;25.00;100976.44;5024390;28;20359;-68